Green Valley, IL (61534)

3:12 AM CDT on March 27, 2015 (GMT -0500)
Green Acres | | Change Station
CLOSE
Current Station
Personal Weather Station
Location: Green Valley, IL
Elevation: 516 ft
Nearby Weather Stations

Elev 516 ft 40.48 °N, 89.66 °W | Updated 9 minutes ago

Partly Cloudy
Partly Cloudy
29.8 °F
Feels Like 26 °F
N
4.0
Wind Variable Wind from NNE
Gusts 9.0 mph

Today
High -- | Low -- °F
--% Chance of Precip.
Yesterday
High -- | Low -- °F
Precip. -- in
6:50 AM 7:17 PM
Waxing Crescent, 50% visible
Pressure 30.11 in
Visibility 10.0 miles
Clouds Clear
Windchill 26 °F
Dew Point 24 °F
Humidity 79%
Rainfall 0.00 in
Snow Depth Not available.
UV 0 out of 12
Pollen 3.80 out of 12
Air Quality Not available.
Flu Activity Not available.
METAR KPIA 270754Z 34005KT 10SM CLR M01/M06 A3009 RMK AO2 SLP195 T10111061

More Conditions Fewer Conditions

Pressure 30.11 in
Visibility 10.0 miles
Clouds Clear
Windchill 26 °F
Dew Point 24 °F
Humidity 79%
Rainfall 0.00 in
Snow Depth Not available.
UV 0 out of 12
Pollen 3.80 out of 12
Air Quality Not available.
Flu Activity Not available.
METAR KPIA 270754Z 34005KT 10SM CLR M01/M06 A3009 RMK AO2 SLP195 T10111061

More Conditions Fewer Conditions

10-Day Weather Forecast

Almanac

Astronomy

Mar. 27, 2015 Rise Set
Actual Time
Civil Twilight
Nautical Twilight
Astronomical Twilight
Moon
Length of Visible Light
Length of Day
Tomorrow will be .
, % of the Moon is Illuminated

Today's Extremes

State Highs State Lows

Community

WunderPhotos

Upload Photos

1,808,705 photos uploaded!

WunderBlogs® & News

Nearby

Air Quality

  Air Quality AQ Index Pollutant
Not available.

Snow Depth

Station Depth Elevation

Earthquake Activity

City Distance Mag. Time & Date
Minimum magnitude displayed is 2.5.

Coastal Water Temperatures

Place Temperature

Stations

Nearby Weather Stations

Station Location Temp. Windchill Dew Point Humidity Wind Precip. Elev Updated Type